sensor_id;sensor_type;location;lat;lon;timestamp;pressure;altitude;pressure_sealevel;temperature;humidity
24868;BME280;12941;48.698;9.310;2024-01-07T00:00:19;97243.3;;;11.22;66.304
24868;BME280;12941;48.698;9.310;2024-01-07T00:01:24;97240.7;;;11.22;66.379
24868;BME280;12941;48.698;9.310;2024-01-07T00:02:23;97240.59999999999;;;11.23;66.339
24868;BME280;12941;48.698;9.310;2024-01-07T00:03:29;97245.7;;;11.23;66.264
24868;BME280;12941;48.698;9.310;2024-01-07T00:04:34;97238.7;;;11.25;66.169
24868;BME280;12941;48.698;9.310;2024-01-07T00:05:38;97243;;;11.25;66.072
24868;BME280;12941;48.698;9.310;2024-01-07T00:06:44;97243.9;;;11.25;66.04
24868;BME280;12941;48.698;9.310;2024-01-07T00:07:48;97236.2;;;11.25;66.104
24868;BME280;12941;48.698;9.310;2024-01-07T00:08:48;97240.59999999999;;;11.23;66.048
24868;BME280;12941;48.698;9.310;2024-01-07T00:09:49;97240.59999999999;;;11.23;66.091
24868;BME280;12941;48.698;9.310;2024-01-07T00:10:53;97236.3;;;11.24;66.177
24868;BME280;12941;48.698;9.310;2024-01-07T00:11:59;97250;;;11.23;66.208
24868;BME280;12941;48.698;9.310;2024-01-07T00:13:03;97243;;;11.25;66.233
24868;BME280;12941;48.698;9.310;2024-01-07T00:14:09;97243;;;11.25;66.244
24868;BME280;12941;48.698;9.310;2024-01-07T00:15:14;97241.2;;;11.27;66.215
24868;BME280;12941;48.698;9.310;2024-01-07T00:16:19;97239.59999999999;;;11.26;66.203
24868;BME280;12941;48.698;9.310;2024-01-07T00:17:24;97248;;;11.28;66.206
24868;BME280;12941;48.698;9.310;2024-01-07T00:18:28;97248;;;11.28;66.12
24868;BME280;12941;48.698;9.310;2024-01-07T00:19:29;97250.5;;;11.28;66.185
24868;BME280;12941;48.698;9.310;2024-01-07T00:20:29;97244.5;;;11.29;66.143
24868;BME280;12941;48.698;9.310;2024-01-07T00:21:29;97250.40000000001;;;11.29;66.143
24868;BME280;12941;48.698;9.310;2024-01-07T00:22:33;97252.20000000001;;;11.29;66.186
24868;BME280;12941;48.698;9.310;2024-01-07T00:23:34;97248;;;11.28;66.185
24868;BME280;12941;48.698;9.310;2024-01-07T00:24:34;97255.8;;;11.26;66.332
24868;BME280;12941;48.698;9.310;2024-01-07T00:25:34;97251.5;;;11.27;66.484
24868;BME280;12941;48.698;9.310;2024-01-07T00:26:39;97252.3;;;11.27;66.506
24868;BME280;12941;48.698;9.310;2024-01-07T00:27:39;97246.3;;;11.27;66.56
24868;BME280;12941;48.698;9.310;2024-01-07T00:28:40;97249.8;;;11.26;66.634
24868;BME280;12941;48.698;9.310;2024-01-07T00:29:44;97250.8;;;11.25;66.815
24868;BME280;12941;48.698;9.310;2024-01-07T00:30:49;97253.2;;;11.26;66.795
24868;BME280;12941;48.698;9.310;2024-01-07T00:31:54;97256.6;;;11.27;66.775
24868;BME280;12941;48.698;9.310;2024-01-07T00:32:59;97249.8;;;11.26;66.936
24868;BME280;12941;48.698;9.310;2024-01-07T00:33:59;97250.8;;;11.25;66.999
24868;BME280;12941;48.698;9.310;2024-01-07T00:35:04;97249;;;11.25;67.074
24868;BME280;12941;48.698;9.310;2024-01-07T00:36:04;97249.8;;;11.26;66.914
24868;BME280;12941;48.698;9.310;2024-01-07T00:37:04;97251.5;;;11.27;66.904
24868;BME280;12941;48.698;9.310;2024-01-07T00:38:09;97248.1;;;11.26;66.989
24868;BME280;12941;48.698;9.310;2024-01-07T00:39:14;97243.9;;;11.25;67.117
24868;BME280;12941;48.698;9.310;2024-01-07T00:40:14;97253.3;;;11.25;67.235
24868;BME280;12941;48.698;9.310;2024-01-07T00:41:14;97247.40000000001;;;11.24;67.245
24868;BME280;12941;48.698;9.310;2024-01-07T00:42:19;97246.5;;;11.24;67.33
24868;BME280;12941;48.698;9.310;2024-01-07T00:43:19;97241.4;;;11.24;67.308
24868;BME280;12941;48.698;9.310;2024-01-07T00:44:19;97248.2;;;11.25;67.289
24868;BME280;12941;48.698;9.310;2024-01-07T00:45:24;97249.8;;;11.26;67.355
24868;BME280;12941;48.698;9.310;2024-01-07T00:46:24;97243.8;;;11.27;67.39
24868;BME280;12941;48.698;9.310;2024-01-07T00:47:29;97243.7;;;11.28;67.283
24868;BME280;12941;48.698;9.310;2024-01-07T00:48:29;97242;;;11.27;67.271
24868;BME280;12941;48.698;9.310;2024-01-07T00:49:35;97246.2;;;11.28;67.229
24868;BME280;12941;48.698;9.310;2024-01-07T00:50:39;97248.7;;;11.3;67.135
24868;BME280;12941;48.698;9.310;2024-01-07T00:51:39;97251.3;;;11.3;67.188
24868;BME280;12941;48.698;9.310;2024-01-07T00:52:39;97248.7;;;11.3;67.178
24868;BME280;12941;48.698;9.310;2024-01-07T00:53:40;97257.2;;;11.3;67.169
24868;BME280;12941;48.698;9.310;2024-01-07T00:54:44;97250.3;;;11.31;67.223
24868;BME280;12941;48.698;9.310;2024-01-07T00:55:44;97251.3;;;11.3;67.222
24868;BME280;12941;48.698;9.310;2024-01-07T00:56:44;97251.3;;;11.3;67.308
24868;BME280;12941;48.698;9.310;2024-01-07T00:57:44;97259.7;;;11.32;67.375
24868;BME280;12941;48.698;9.310;2024-01-07T00:58:44;97251.3;;;11.3;67.415
24868;BME280;12941;48.698;9.310;2024-01-07T00:59:44;97252.9;;;11.31;67.384
24868;BME280;12941;48.698;9.310;2024-01-07T01:00:49;97254.5;;;11.32;67.321
24868;BME280;12941;48.698;9.310;2024-01-07T01:01:49;97253.59999999999;;;11.33;67.312
24868;BME280;12941;48.698;9.310;2024-01-07T01:02:49;97254.5;;;11.32;67.343
24868;BME280;12941;48.698;9.310;2024-01-07T01:03:54;97247.79999999999;;;11.31;67.212
24868;BME280;12941;48.698;9.310;2024-01-07T01:04:59;97255.3;;;11.34;67.216
24868;BME280;12941;48.698;9.310;2024-01-07T01:06:04;97257.8;;;11.34;67.141
24868;BME280;12941;48.698;9.310;2024-01-07T01:07:04;97257.8;;;11.34;67.119
24868;BME280;12941;48.698;9.310;2024-01-07T01:08:04;97257.8;;;11.34;67.108
24868;BME280;12941;48.698;9.310;2024-01-07T01:09:09;97256.2;;;11.33;67.301
24868;BME280;12941;48.698;9.310;2024-01-07T01:10:14;97253.59999999999;;;11.33;67.279
24868;BME280;12941;48.698;9.310;2024-01-07T01:11:19;97253.59999999999;;;11.33;67.387
24868;BME280;12941;48.698;9.310;2024-01-07T01:12:19;97255.3;;;11.34;67.389
24868;BME280;12941;48.698;9.310;2024-01-07T01:13:24;97261.1;;;11.36;67.338
24868;BME280;12941;48.698;9.310;2024-01-07T01:14:29;97255.1;;;11.37;67.265
24868;BME280;12941;48.698;9.310;2024-01-07T01:15:29;97259.5;;;11.35;67.164
24868;BME280;12941;48.698;9.310;2024-01-07T01:16:35;97259.5;;;11.35;67.186
24868;BME280;12941;48.698;9.310;2024-01-07T01:17:35;97262.90000000001;;;11.35;67.24
24868;BME280;12941;48.698;9.310;2024-01-07T01:18:35;97259.5;;;11.35;67.175
24868;BME280;12941;48.698;9.310;2024-01-07T01:19:35;97256;;;11.36;67.122
24868;BME280;12941;48.698;9.310;2024-01-07T01:20:39;97268.1;;;11.34;67.151
24868;BME280;12941;48.698;9.310;2024-01-07T01:21:39;97262;;;11.35;67.089
24868;BME280;12941;48.698;9.310;2024-01-07T01:22:44;97267.2;;;11.35;66.927
24868;BME280;12941;48.698;9.310;2024-01-07T01:23:45;97263;;;11.34;66.937
24868;BME280;12941;48.698;9.310;2024-01-07T01:24:44;97259.5;;;11.35;66.97
24868;BME280;12941;48.698;9.310;2024-01-07T01:25:49;97261.1;;;11.36;67.004
24868;BME280;12941;48.698;9.310;2024-01-07T01:26:54;97265.4;;;11.35;66.939
24868;BME280;12941;48.698;9.310;2024-01-07T01:27:54;97269.6;;;11.36;66.692
24868;BME280;12941;48.698;9.310;2024-01-07T01:28:54;97268;;;11.35;66.713
24868;BME280;12941;48.698;9.310;2024-01-07T01:29:59;97271.40000000001;;;11.36;66.724
24868;BME280;12941;48.698;9.310;2024-01-07T01:31:04;97266.2;;;11.36;66.81
24868;BME280;12941;48.698;9.310;2024-01-07T01:32:09;97273;;;11.37;66.813
24868;BME280;12941;48.698;9.310;2024-01-07T01:33:14;97273.90000000001;;;11.36;66.896
24868;BME280;12941;48.698;9.310;2024-01-07T01:34:14;97271.40000000001;;;11.36;66.939
24868;BME280;12941;48.698;9.310;2024-01-07T01:35:19;97267.1;;;11.36;66.908
24868;BME280;12941;48.698;9.310;2024-01-07T01:36:19;97273.90000000001;;;11.36;66.681
24868;BME280;12941;48.698;9.310;2024-01-07T01:37:19;97270.5;;;11.37;66.618
24868;BME280;12941;48.698;9.310;2024-01-07T01:38:24;97267.1;;;11.36;66.628
24868;BME280;12941;48.698;9.310;2024-01-07T01:39:29;97273.8;;;11.37;66.543
24868;BME280;12941;48.698;9.310;2024-01-07T01:40:29;97274.59999999999;;;11.38;66.521
24868;BME280;12941;48.698;9.310;2024-01-07T01:41:35;97274.59999999999;;;11.38;66.597
24868;BME280;12941;48.698;9.310;2024-01-07T01:42:35;97271.1;;;11.39;66.61
24868;BME280;12941;48.698;9.310;2024-01-07T01:43:35;97269.5;;;11.38;66.662
24868;BME280;12941;48.698;9.310;2024-01-07T01:44:39;97272.1;;;11.38;66.737
24868;BME280;12941;48.698;9.310;2024-01-07T01:45:39;97269.4;;;11.39;66.772
24868;BME280;12941;48.698;9.310;2024-01-07T01:46:45;97272.79999999999;;;11.4;66.719
24868;BME280;12941;48.698;9.310;2024-01-07T01:47:49;97268.6;;;11.39;66.815
24868;BME280;12941;48.698;9.310;2024-01-07T01:48:54;97272.1;;;11.38;66.898
24868;BME280;12941;48.698;9.310;2024-01-07T01:49:54;97269.5;;;11.38;66.932
24868;BME280;12941;48.698;9.310;2024-01-07T01:50:59;97274.59999999999;;;11.38;66.953
24868;BME280;12941;48.698;9.310;2024-01-07T01:51:59;97275.5;;;11.38;66.997
24868;BME280;12941;48.698;9.310;2024-01-07T01:52:59;97266;;;11.39;66.955
24868;BME280;12941;48.698;9.310;2024-01-07T01:54:04;97269.4;;;11.39;66.934
24868;BME280;12941;48.698;9.310;2024-01-07T01:55:04;97272.90000000001;;;11.38;66.9
24868;BME280;12941;48.698;9.310;2024-01-07T01:56:09;97273.6;;;11.4;66.839
24868;BME280;12941;48.698;9.310;2024-01-07T01:57:09;97267.7;;;11.4;66.772
24868;BME280;12941;48.698;9.310;2024-01-07T01:58:14;97274.40000000001;;;11.41;66.646
24868;BME280;12941;48.698;9.310;2024-01-07T01:59:19;97272.79999999999;;;11.4;66.762
24868;BME280;12941;48.698;9.310;2024-01-07T02:00:20;97267.7;;;11.4;66.6
24868;BME280;12941;48.698;9.310;2024-01-07T02:01:25;97266.7;;;11.41;66.344
24868;BME280;12941;48.698;9.310;2024-01-07T02:02:25;97268.4;;;11.42;66.217
24868;BME280;12941;48.698;9.310;2024-01-07T02:03:30;97268.4;;;11.42;66.087
24868;BME280;12941;48.698;9.310;2024-01-07T02:04:35;97269.2;;;11.42;66.012
24868;BME280;12941;48.698;9.310;2024-01-07T02:05:40;97267.5;;;11.43;65.83
24868;BME280;12941;48.698;9.310;2024-01-07T02:06:45;97269.3;;;11.41;65.859
24868;BME280;12941;48.698;9.310;2024-01-07T02:07:45;97269.5;;;11.38;65.896
24868;BME280;12941;48.698;9.310;2024-01-07T02:08:50;97265.3;;;11.37;66.048
24868;BME280;12941;48.698;9.310;2024-01-07T02:09:50;97263.5;;;11.37;66.069
24868;BME280;12941;48.698;9.310;2024-01-07T02:10:50;97272.1;;;11.38;65.982
24868;BME280;12941;48.698;9.310;2024-01-07T02:12:05;97267.9;;;11.37;65.918
24868;BME280;12941;48.698;9.310;2024-01-07T02:12:50;97264.4;;;11.38;65.886
24868;BME280;12941;48.698;9.310;2024-01-07T02:13:55;97268.6;;;11.39;65.899
24868;BME280;12941;48.698;9.310;2024-01-07T02:14:55;97268.6;;;11.39;65.846
24868;BME280;12941;48.698;9.310;2024-01-07T02:15:55;97267.5;;;11.41;65.699
24868;BME280;12941;48.698;9.310;2024-01-07T02:16:55;97267.7;;;11.4;65.717
24868;BME280;12941;48.698;9.310;2024-01-07T02:17:55;97268.5;;;11.4;65.567
24868;BME280;12941;48.698;9.310;2024-01-07T02:18:55;97273.6;;;11.4;65.459
24868;BME280;12941;48.698;9.310;2024-01-07T02:20:00;97267.7;;;11.4;65.447
24868;BME280;12941;48.698;9.310;2024-01-07T02:21:06;97271.8;;;11.42;65.505
24868;BME280;12941;48.698;9.310;2024-01-07T02:22:10;97275.40000000001;;;11.4;65.382
24868;BME280;12941;48.698;9.310;2024-01-07T02:23:11;97270.1;;;11.41;65.462
24868;BME280;12941;48.698;9.310;2024-01-07T02:24:15;97270.9;;;11.42;65.408
24868;BME280;12941;48.698;9.310;2024-01-07T02:25:15;97270.9;;;11.42;65.268
24868;BME280;12941;48.698;9.310;2024-01-07T02:26:20;97271;;;11.4;65.265
24868;BME280;12941;48.698;9.310;2024-01-07T02:27:25;97271;;;11.4;65.341
24868;BME280;12941;48.698;9.310;2024-01-07T02:28:25;97273.5;;;11.42;65.397
24868;BME280;12941;48.698;9.310;2024-01-07T02:29:30;97280.4;;;11.41;65.311
24868;BME280;12941;48.698;9.310;2024-01-07T02:30:30;97273.6;;;11.4;65.232
24868;BME280;12941;48.698;9.310;2024-01-07T02:31:35;97269.3;;;11.41;65.191
24868;BME280;12941;48.698;9.310;2024-01-07T02:32:35;97273.5;;;11.42;65.041
24868;BME280;12941;48.698;9.310;2024-01-07T02:33:40;97272.7;;;11.41;64.966
24868;BME280;12941;48.698;9.310;2024-01-07T02:34:40;97282.1;;;11.41;64.986
24868;BME280;12941;48.698;9.310;2024-01-07T02:35:40;97277;;;11.41;65.062
24868;BME280;12941;48.698;9.310;2024-01-07T02:36:45;97277;;;11.41;65.213
24868;BME280;12941;48.698;9.310;2024-01-07T02:37:45;97272.79999999999;;;11.4;65.264
24868;BME280;12941;48.698;9.310;2024-01-07T02:38:45;97273.6;;;11.4;65.275
24868;BME280;12941;48.698;9.310;2024-01-07T02:39:45;97276.2;;;11.4;65.298
24868;BME280;12941;48.698;9.310;2024-01-07T02:40:50;97281.4;;;11.39;65.437
24868;BME280;12941;48.698;9.310;2024-01-07T02:41:50;97273.7;;;11.39;65.426
24868;BME280;12941;48.698;9.310;2024-01-07T02:42:50;97272.79999999999;;;11.4;65.469
24868;BME280;12941;48.698;9.310;2024-01-07T02:43:55;97277.9;;;11.4;65.522
24868;BME280;12941;48.698;9.310;2024-01-07T02:45:00;97274.40000000001;;;11.41;65.449
24868;BME280;12941;48.698;9.310;2024-01-07T02:46:05;97274.40000000001;;;11.41;65.32
24868;BME280;12941;48.698;9.310;2024-01-07T02:47:05;97273.6;;;11.4;65.275
24868;BME280;12941;48.698;9.310;2024-01-07T02:48:11;97270.2;;;11.4;64.994
24868;BME280;12941;48.698;9.310;2024-01-07T02:49:15;97273.8;;;11.37;65.013
24868;BME280;12941;48.698;9.310;2024-01-07T02:50:15;97267.1;;;11.36;65.065
24868;BME280;12941;48.698;9.310;2024-01-07T02:51:15;97273.1;;;11.35;65.215
24868;BME280;12941;48.698;9.310;2024-01-07T02:52:20;97274.2;;;11.33;65.275
24868;BME280;12941;48.698;9.310;2024-01-07T02:53:20;97274.2;;;11.33;65.168
24868;BME280;12941;48.698;9.310;2024-01-07T02:54:20;97272.40000000001;;;11.33;65.124
24868;BME280;12941;48.698;9.310;2024-01-07T02:55:20;97268.1;;;11.34;65.18
24868;BME280;12941;48.698;9.310;2024-01-07T02:56:25;97271.6;;;11.33;65.157
24868;BME280;12941;48.698;9.310;2024-01-07T02:57:30;97269.9;;;11.32;65.102
24868;BME280;12941;48.698;9.310;2024-01-07T02:58:35;97275.09999999999;;;11.32;64.994
24868;BME280;12941;48.698;9.310;2024-01-07T02:59:40;97273.2;;;11.34;64.867
24868;BME280;12941;48.698;9.310;2024-01-07T03:00:45;97266.4;;;11.34;64.696
24868;BME280;12941;48.698;9.310;2024-01-07T03:01:45;97266.2;;;11.36;64.644
24868;BME280;12941;48.698;9.310;2024-01-07T03:02:50;97273.90000000001;;;11.36;64.449
24868;BME280;12941;48.698;9.310;2024-01-07T03:03:50;97269.6;;;11.36;64.364
24868;BME280;12941;48.698;9.310;2024-01-07T03:04:55;97267.1;;;11.36;64.364
24868;BME280;12941;48.698;9.310;2024-01-07T03:05:55;97267.9;;;11.37;64.334
24868;BME280;12941;48.698;9.310;2024-01-07T03:07:00;97265.3;;;11.37;64.258
24868;BME280;12941;48.698;9.310;2024-01-07T03:08:05;97274.90000000001;;;11.35;64.308
24868;BME280;12941;48.698;9.310;2024-01-07T03:09:05;97268.1;;;11.34;64.231
24868;BME280;12941;48.698;9.310;2024-01-07T03:10:10;97269.7;;;11.35;64.168
24868;BME280;12941;48.698;9.310;2024-01-07T03:11:10;97268.9;;;11.34;64.265
24868;BME280;12941;48.698;9.310;2024-01-07T03:12:15;97270.6;;;11.35;64.288
24868;BME280;12941;48.698;9.310;2024-01-07T03:13:15;97271.40000000001;;;11.36;64.094
24868;BME280;12941;48.698;9.310;2024-01-07T03:14:20;97277.3;;;11.36;64.041
24868;BME280;12941;48.698;9.310;2024-01-07T03:15:25;97281.6;;;11.36;64.008
24868;BME280;12941;48.698;9.310;2024-01-07T03:16:30;97273.1;;;11.35;64.19
24868;BME280;12941;48.698;9.310;2024-01-07T03:17:35;97274.90000000001;;;11.35;64.265
24868;BME280;12941;48.698;9.310;2024-01-07T03:18:35;97272.5;;;11.32;64.336
24868;BME280;12941;48.698;9.310;2024-01-07T03:19:40;97282;;;11.31;64.507
24868;BME280;12941;48.698;9.310;2024-01-07T03:20:45;97279.5;;;11.3;64.7
24868;BME280;12941;48.698;9.310;2024-01-07T03:21:50;97278.4;;;11.34;64.781
24868;BME280;12941;48.698;9.310;2024-01-07T03:22:55;97286.90000000001;;;11.34;64.696
24868;BME280;12941;48.698;9.310;2024-01-07T03:23:55;97281.8;;;11.33;64.758
24868;BME280;12941;48.698;9.310;2024-01-07T03:25:00;97278.4;;;11.34;64.792
24868;BME280;12941;48.698;9.310;2024-01-07T03:26:05;97282.5;;;11.36;64.86
24868;BME280;12941;48.698;9.310;2024-01-07T03:27:05;97284.2;;;11.36;64.665
24868;BME280;12941;48.698;9.310;2024-01-07T03:28:11;97285;;;11.36;64.667
24868;BME280;12941;48.698;9.310;2024-01-07T03:29:16;97286;;;11.35;64.729
24868;BME280;12941;48.698;9.310;2024-01-07T03:30:20;97282.5;;;11.36;64.71
24868;BME280;12941;48.698;9.310;2024-01-07T03:31:20;97287.5;;;11.38;64.754
24868;BME280;12941;48.698;9.310;2024-01-07T03:32:21;97290;;;11.38;64.711
24868;BME280;12941;48.698;9.310;2024-01-07T03:33:20;97291;;;11.37;64.614
24868;BME280;12941;48.698;9.310;2024-01-07T03:34:25;97290;;;11.38;64.657
24868;BME280;12941;48.698;9.310;2024-01-07T03:35:30;97287.59999999999;;;11.36;64.699
24868;BME280;12941;48.698;9.310;2024-01-07T03:36:30;97290.3;;;11.35;64.761
24868;BME280;12941;48.698;9.310;2024-01-07T03:37:30;97301.3;;;11.35;64.708
24868;BME280;12941;48.698;9.310;2024-01-07T03:38:31;97290.3;;;11.35;64.793
24868;BME280;12941;48.698;9.310;2024-01-07T03:39:35;97297.90000000001;;;11.36;64.753
24868;BME280;12941;48.698;9.310;2024-01-07T03:40:35;97286.90000000001;;;11.34;64.675
24868;BME280;12941;48.698;9.310;2024-01-07T03:41:40;97293.7;;;11.34;64.576
24868;BME280;12941;48.698;9.310;2024-01-07T03:42:40;97293.1;;;11.3;64.744
24868;BME280;12941;48.698;9.310;2024-01-07T03:43:40;97296.6;;;11.29;64.86
24868;BME280;12941;48.698;9.310;2024-01-07T03:44:46;97288.9;;;11.29;64.86
24868;BME280;12941;48.698;9.310;2024-01-07T03:45:50;97291.5;;;11.29;64.677
24868;BME280;12941;48.698;9.310;2024-01-07T03:46:50;97295.8;;;11.29;64.72
24868;BME280;12941;48.698;9.310;2024-01-07T03:47:51;97294.9;;;11.3;64.679
24868;BME280;12941;48.698;9.310;2024-01-07T03:48:55;97289;;;11.28;64.751
24868;BME280;12941;48.698;9.310;2024-01-07T03:49:56;97285.5;;;11.29;64.569
24868;BME280;12941;48.698;9.310;2024-01-07T03:50:56;97288.9;;;11.29;64.429
24868;BME280;12941;48.698;9.310;2024-01-07T03:52:00;97287.2;;;11.3;64.269
24868;BME280;12941;48.698;9.310;2024-01-07T03:53:05;97284.6;;;11.3;64.172
24868;BME280;12941;48.698;9.310;2024-01-07T03:54:05;97293.2;;;11.29;64.084
24868;BME280;12941;48.698;9.310;2024-01-07T03:55:06;97290.7;;;11.29;63.912
24868;BME280;12941;48.698;9.310;2024-01-07T03:56:10;97291.5;;;11.29;64.02
24868;BME280;12941;48.698;9.310;2024-01-07T03:57:11;97288.9;;;11.29;64.02
24868;BME280;12941;48.698;9.310;2024-01-07T03:58:16;97289;;;11.28;63.975
24868;BME280;12941;48.698;9.310;2024-01-07T03:59:15;97294.2;;;11.28;63.932
24868;BME280;12941;48.698;9.310;2024-01-07T04:00:21;97295.1;;;11.27;63.952
24868;BME280;12941;48.698;9.310;2024-01-07T04:01:26;97290.9;;;11.26;64.005
24868;BME280;12941;48.698;9.310;2024-01-07T04:02:31;97290.09999999999;;;11.25;64.144
24868;BME280;12941;48.698;9.310;2024-01-07T04:03:36;97287.40000000001;;;11.27;64.124
24868;BME280;12941;48.698;9.310;2024-01-07T04:04:36;97290;;;11.27;64.124
24868;BME280;12941;48.698;9.310;2024-01-07T04:05:36;97290.7;;;11.29;63.577
24868;BME280;12941;48.698;9.310;2024-01-07T04:06:41;97301.8;;;11.29;63.383
24868;BME280;12941;48.698;9.310;2024-01-07T04:07:46;97301.9;;;11.28;63.35
24868;BME280;12941;48.698;9.310;2024-01-07T04:08:51;97295.2;;;11.25;63.356
24868;BME280;12941;48.698;9.310;2024-01-07T04:09:51;97294.4;;;11.25;63.518
24868;BME280;12941;48.698;9.310;2024-01-07T04:10:51;97302.09999999999;;;11.25;63.151
24868;BME280;12941;48.698;9.310;2024-01-07T04:11:51;97298.90000000001;;;11.21;63.049
24868;BME280;12941;48.698;9.310;2024-01-07T04:12:51;97306.7;;;11.2;63.165
24868;BME280;12941;48.698;9.310;2024-01-07T04:13:56;97302.70000000001;;;11.16;63.3
24868;BME280;12941;48.698;9.310;2024-01-07T04:15:01;97305.3;;;11.14;63.308
24868;BME280;12941;48.698;9.310;2024-01-07T04:16:01;97306.2;;;11.13;63.307
24868;BME280;12941;48.698;9.310;2024-01-07T04:17:06;97310.6;;;11.13;63.521
24868;BME280;12941;48.698;9.310;2024-01-07T04:18:06;97305.4;;;11.13;63.467
24868;BME280;12941;48.698;9.310;2024-01-07T04:19:11;97305.4;;;11.13;63.563
24868;BME280;12941;48.698;9.310;2024-01-07T04:20:12;97308.8;;;11.13;63.565
24868;BME280;12941;48.698;9.310;2024-01-07T04:21:16;97310.6;;;11.13;63.639
24868;BME280;12941;48.698;9.310;2024-01-07T04:22:21;97309.5;;;11.15;63.524
24868;BME280;12941;48.698;9.310;2024-01-07T04:23:21;97315.59999999999;;;11.14;63.599
24868;BME280;12941;48.698;9.310;2024-01-07T04:24:21;97318.2;;;11.13;63.769
24868;BME280;12941;48.698;9.310;2024-01-07T04:25:26;97322.5;;;11.14;63.933
24868;BME280;12941;48.698;9.310;2024-01-07T04:26:31;97312.2;;;11.14;63.922
24868;BME280;12941;48.698;9.310;2024-01-07T04:27:31;97315.7;;;11.13;63.897
24868;BME280;12941;48.698;9.310;2024-01-07T04:28:37;97321.7;;;11.11;63.974
24868;BME280;12941;48.698;9.310;2024-01-07T04:29:41;97314.20000000001;;;11.08;64.064
24868;BME280;12941;48.698;9.310;2024-01-07T04:30:41;97321;;;11.09;64.196
24868;BME280;12941;48.698;9.310;2024-01-07T04:31:46;97311.7;;;11.08;64.14
24868;BME280;12941;48.698;9.310;2024-01-07T04:32:46;97318.5;;;11.09;64.132
24868;BME280;12941;48.698;9.310;2024-01-07T04:33:51;97312.59999999999;;;11.07;64.128
24868;BME280;12941;48.698;9.310;2024-01-07T04:34:51;97315.20000000001;;;11.07;63.815
24868;BME280;12941;48.698;9.310;2024-01-07T04:35:56;97323.7;;;11.08;63.589
24868;BME280;12941;48.698;9.310;2024-01-07T04:37:01;97319.4;;;11.08;63.504
24868;BME280;12941;48.698;9.310;2024-01-07T04:38:01;97313.5;;;11.06;62.693
24868;BME280;12941;48.698;9.310;2024-01-07T04:39:01;97313.5;;;11.06;63.479
24868;BME280;12941;48.698;9.310;2024-01-07T04:40:06;97320.4;;;11.06;63.554
24868;BME280;12941;48.698;9.310;2024-01-07T04:41:06;97319.5;;;11.07;63.6
24868;BME280;12941;48.698;9.310;2024-01-07T04:42:11;97322;;;11.07;63.643
24868;BME280;12941;48.698;9.310;2024-01-07T04:43:11;97316.8;;;11.08;63.741
24868;BME280;12941;48.698;9.310;2024-01-07T04:44:16;97321;;;11.09;63.69
24868;BME280;12941;48.698;9.310;2024-01-07T04:45:21;97319.4;;;11.08;63.773
24868;BME280;12941;48.698;9.310;2024-01-07T04:46:21;97322.90000000001;;;11.07;63.815
24868;BME280;12941;48.698;9.310;2024-01-07T04:47:23;97322;;;11.07;63.88
24868;BME280;12941;48.698;9.310;2024-01-07T04:48:21;97329;;;11.05;64.071
24868;BME280;12941;48.698;9.310;2024-01-07T04:49:21;97330.1;;;11.02;64.304
24868;BME280;12941;48.698;9.310;2024-01-07T04:50:21;97330.1;;;11.02;63.98
24868;BME280;12941;48.698;9.310;2024-01-07T04:51:26;97331;;;11.01;64.055
24868;BME280;12941;48.698;9.310;2024-01-07T04:52:26;97324.90000000001;;;11.02;64.186
24868;BME280;12941;48.698;9.310;2024-01-07T04:53:31;97323.29999999999;;;11.01;63.979
24868;BME280;12941;48.698;9.310;2024-01-07T04:54:36;97329.4;;;10.99;63.76
24868;BME280;12941;48.698;9.310;2024-01-07T04:55:41;97328.59999999999;;;10.98;63.673
24868;BME280;12941;48.698;9.310;2024-01-07T04:56:46;97330.5;;;10.95;63.755
24868;BME280;12941;48.698;9.310;2024-01-07T04:57:46;97332.3;;;10.94;64.119
24868;BME280;12941;48.698;9.310;2024-01-07T04:58:51;97332.4;;;10.93;64.15
24868;BME280;12941;48.698;9.310;2024-01-07T04:59:51;97329.8;;;10.93;64.226
24868;BME280;12941;48.698;9.310;2024-01-07T05:00:56;97337.5;;;10.93;64.086
24868;BME280;12941;48.698;9.310;2024-01-07T05:02:01;97337.59999999999;;;10.91;64.072
24868;BME280;12941;48.698;9.310;2024-01-07T05:03:06;97339.5;;;10.89;63.93
24868;BME280;12941;48.698;9.310;2024-01-07T05:04:06;97339.5;;;10.89;64.134
24868;BME280;12941;48.698;9.310;2024-01-07T05:05:11;97339.70000000001;;;10.86;64.13
24868;BME280;12941;48.698;9.310;2024-01-07T05:06:11;97339.8;;;10.85;64.202
24868;BME280;12941;48.698;9.310;2024-01-07T05:07:11;97343.1;;;10.85;64.267
24868;BME280;12941;48.698;9.310;2024-01-07T05:08:15;97348.40000000001;;;10.84;64.427
24868;BME280;12941;48.698;9.310;2024-01-07T05:09:16;97342.5;;;10.82;64.489
24868;BME280;12941;48.698;9.310;2024-01-07T05:10:16;97342.7;;;10.78;64.408
24868;BME280;12941;48.698;9.310;2024-01-07T05:11:21;97341.9;;;10.78;64.623
24868;BME280;12941;48.698;9.310;2024-01-07T05:12:26;97351.3;;;10.77;64.839
24868;BME280;12941;48.698;9.310;2024-01-07T05:13:27;97350.5;;;10.77;64.815
24868;BME280;12941;48.698;9.310;2024-01-07T05:14:31;97351.2;;;10.79;64.851
24868;BME280;12941;48.698;9.310;2024-01-07T05:15:31;97349.5;;;10.8;64.723
24868;BME280;12941;48.698;9.310;2024-01-07T05:16:31;97352.9;;;10.8;64.615
24868;BME280;12941;48.698;9.310;2024-01-07T05:17:36;97354.5;;;10.81;64.746
24868;BME280;12941;48.698;9.310;2024-01-07T05:18:36;97350.3;;;10.8;64.874
24868;BME280;12941;48.698;9.310;2024-01-07T05:19:41;97355.4;;;10.8;64.938
24868;BME280;12941;48.698;9.310;2024-01-07T05:20:41;97352.9;;;10.8;64.906
24868;BME280;12941;48.698;9.310;2024-01-07T05:21:46;97358.90000000001;;;10.79;64.98
24868;BME280;12941;48.698;9.310;2024-01-07T05:22:51;97355.5;;;10.78;64.936
24868;BME280;12941;48.698;9.310;2024-01-07T05:23:51;97353.09999999999;;;10.77;64.644
24868;BME280;12941;48.698;9.310;2024-01-07T05:24:51;97352.09999999999;;;10.78;64.559